Hovedside
METAR-TAF:

METAR-TAF

Lufthavner :

Padang, Indonesia

breddegrad: 00-47-12S, lengdegrad: 100-16-50E, høyde over havet: 5 m

Gjeldene værobservasjon

Denne rapporten ble laget for 47 minutter siden, klokken 02:30 UTC
Vind 2 kt fra skiftende retning
Temperatur 28°C
Luftfuktighet 79%
Trykk 1010 hPa
Sikt 10 km eller mer
Spredte skyer i en høyde av 3000 ft

METAR: WIEE 220230Z VRB02KT 9999 SCT030 28/24 Q1010 NOSIG

Tid: 10:17 (03:17 UTC)

Varsel

Denne rapporten ble laget for 4 timer og 17 minutter siden, klokken 23:00 UTC
Varsel gyldig fra 22. klokken 00 UTC til 22. klokken 24 UTC
Vind 7 kt fra Vest
Sikt 10 km eller mer
Spredte skyer i en høyde av 2000 ft

TAF: WIEE 212300Z 2200/2224 26007KT 9999 SCT020

Værobservasjoner og værvarsel for over 4000 flyplasser (METAR- og TAF-rapporter).

Tilgjengelige stasjoner er representert av de røde og gule prikkene på kartet.

Hold musepekeren over prikken for å se navnet på stasjonen.

Klikk så for å se værobservasjoner og -varsler.

For å forandre kartet kan du klikke på den grønne knappen med svart kryss for å zoome inn, på den grønne knappen med strek for å zoome ut, eller på de grønne pilene for å se tilstøtende kart.


METAR-TAF: